Time;durP1;ratioP1;P1;durP2;ratioP2;P2;SDS_P1;SDS_P2;PMS_P1;PMS_P2;Temp;Humidity;BMP_temperature;BMP_pressure;BME280_temperature;BME280_humidity;BME280_pressure;Samples;Min_cycle;Max_cycle;Signal;HPM_P1;HPM_P2
2022/06/02 00:00:24;;;;;;;2.55;1.42;;;;;;;17.85;53.00;96715.38;10450500;28;20417;-22
2022/06/02 00:05:50;;;;;;;1.50;1.00;;;;;;;17.80;52.64;96694.25;10450814;28;20048;-22
2022/06/02 00:11:16;;;;;;;2.15;0.80;;;;;;;17.77;53.07;96714.53;10450879;28;20128;-22
2022/06/02 00:16:31;;;;;;;1.83;1.27;;;;;;;17.75;52.75;96723.81;10450212;28;20060;-22
2022/06/02 00:21:44;;;;;;;2.40;1.30;;;;;;;17.71;53.12;96717.91;10482548;28;20033;-22
2022/06/02 00:27:04;;;;;;;2.72;1.30;;;;;;;17.69;53.41;96726.31;10473257;28;20103;-22
2022/06/02 00:32:29;;;;;;;2.55;1.27;;;;;;;17.66;53.45;96728.84;10448744;28;20041;-22
2022/06/02 00:37:47;;;;;;;1.15;1.02;;;;;;;17.60;53.59;96728.81;10449878;28;20032;-22
2022/06/02 00:42:54;;;;;;;1.30;1.13;;;;;;;17.55;54.01;96731.34;10449747;28;20025;-22
2022/06/02 00:48:14;;;;;;;1.55;1.30;;;;;;;17.66;53.79;96733.91;10450109;28;20037;-23
2022/06/02 00:53:39;;;;;;;1.33;1.23;;;;;;;17.72;53.73;96737.31;10480339;28;20044;-21
2022/06/02 00:59:18;;;;;;;2.53;1.33;;;;;;;17.61;53.96;96727.97;10455272;28;20033;-22
2022/06/02 01:04:19;;;;;;;1.20;1.10;;;;;;;17.58;54.39;96738.09;10449347;28;20037;-23
2022/06/02 01:09:25;;;;;;;1.45;0.90;;;;;;;17.55;54.77;96730.47;10452360;28;20060;-22
2022/06/02 01:14:46;;;;;;;2.60;1.43;;;;;;;17.54;54.70;96738.91;10457429;28;20033;-23
2022/06/02 01:19:54;;;;;;;2.40;1.42;;;;;;;17.53;55.06;96742.28;10461984;28;20028;-22
2022/06/02 01:25:16;;;;;;;1.88;1.20;;;;;;;17.56;55.05;96742.31;10494878;28;20055;-22
2022/06/02 01:30:39;;;;;;;1.30;1.10;;;;;;;17.52;54.87;96735.53;10457129;28;20564;-22
2022/06/02 01:35:51;;;;;;;1.92;1.17;;;;;;;17.57;54.63;96744.00;10456810;28;20029;-21
2022/06/02 01:40:51;;;;;;;2.30;1.25;;;;;;;17.65;54.36;96732.22;10466861;28;20414;-23
2022/06/02 01:46:14;;;;;;;1.58;1.13;;;;;;;17.73;54.19;96746.59;10497610;28;20031;-21
2022/06/02 01:51:34;;;;;;;4.07;1.38;;;;;;;17.72;54.13;96744.03;10476410;28;20040;-23
2022/06/02 01:56:52;;;;;;;3.47;1.55;;;;;;;17.71;54.37;96742.34;10455737;28;20029;-21
2022/06/02 02:02:09;;;;;;;1.65;1.27;;;;;;;17.58;54.56;96740.63;10456058;28;20033;-24
2022/06/02 02:07:16;;;;;;;2.80;1.60;;;;;;;17.65;54.63;96742.34;10455283;28;20064;-23
2022/06/02 02:12:41;;;;;;;3.70;1.85;;;;;;;17.64;54.53;96745.69;10455008;28;20108;-22
2022/06/02 02:17:58;;;;;;;2.60;1.75;;;;;;;17.54;55.31;96733.84;10454841;28;20119;-22
2022/06/02 02:23:23;;;;;;;2.15;1.60;;;;;;;17.52;55.38;96730.47;10454492;28;20446;-22
2022/06/02 02:28:51;;;;;;;1.88;1.77;;;;;;;17.53;55.24;96727.97;10454370;28;20056;-22
2022/06/02 02:34:03;;;;;;;2.25;1.60;;;;;;;17.63;54.60;96739.81;10453965;28;20036;-22
2022/06/02 02:39:17;;;;;;;3.13;1.40;;;;;;;17.56;54.66;96719.53;10454106;28;20031;-22
2022/06/02 02:44:41;;;;;;;4.35;1.75;;;;;;;17.70;54.84;96743.19;10454146;28;20032;-21
2022/06/02 02:49:54;;;;;;;2.85;1.60;;;;;;;17.63;54.98;96738.94;10454088;28;20037;-23
2022/06/02 02:55:05;;;;;;;2.03;1.83;;;;;;;17.55;55.45;96731.34;10453915;28;20060;-23
2022/06/02 03:00:23;;;;;;;2.42;1.90;;;;;;;17.53;55.63;96725.44;10453837;28;20040;-22
2022/06/02 03:05:59;;;;;;;2.60;1.80;;;;;;;17.51;55.64;96723.72;10452320;28;20495;-22
2022/06/02 03:11:14;;;;;;;2.55;1.75;;;;;;;17.52;55.74;96716.16;10453009;28;20047;-22
2022/06/02 03:16:15;;;;;;;2.97;2.03;;;;;;;17.51;55.65;96721.19;10453006;28;20045;-23
2022/06/02 03:21:24;;;;;;;2.05;1.85;;;;;;;17.46;55.71;96721.19;10453338;28;20037;-22
2022/06/02 03:26:38;;;;;;;2.00;1.70;;;;;;;17.50;55.68;96715.28;10452233;28;20029;-21
2022/06/02 03:31:49;;;;;;;2.05;1.80;;;;;;;17.68;55.06;96722.09;10451200;28;20065;-22
2022/06/02 03:37:07;;;;;;;2.88;1.83;;;;;;;17.60;55.18;96719.56;10451663;28;20045;-23
2022/06/02 03:42:27;;;;;;;1.98;1.50;;;;;;;17.56;55.45;96727.13;10451807;28;20033;-21
2022/06/02 03:47:45;;;;;;;2.90;1.80;;;;;;;17.50;55.56;96722.03;10451344;28;20075;-21
2022/06/02 03:53:04;;;;;;;2.58;2.03;;;;;;;17.47;55.54;96729.59;10487652;28;20041;-22
2022/06/02 03:58:34;;;;;;;2.33;1.73;;;;;;;17.47;55.55;96732.13;10461333;28;20132;-22
2022/06/02 04:03:40;;;;;;;2.50;1.67;;;;;;;17.44;55.33;96732.13;10413929;28;20045;-21
2022/06/02 04:08:55;;;;;;;3.20;1.67;;;;;;;17.44;55.39;96733.00;10450910;28;20032;-21
2022/06/02 04:14:05;;;;;;;2.03;1.55;;;;;;;17.42;55.24;96723.69;10486264;28;20036;-22
2022/06/02 04:24:43;;;;;;;2.38;1.95;;;;;;;17.62;54.59;96727.13;10450195;28;20065;-23
2022/06/02 04:30:22;;;;;;;2.45;1.35;;;;;;;17.56;54.69;96727.13;10449795;28;20029;-23
2022/06/02 04:35:45;;;;;;;1.90;1.30;;;;;;;17.47;54.58;96732.13;10458962;28;20473;-24
2022/06/02 04:41:17;;;;;;;2.70;1.65;;;;;;;17.32;55.03;96732.06;10480208;28;20459;-22
2022/06/02 04:46:42;;;;;;;3.20;1.83;;;;;;;17.47;55.22;96747.31;10463350;28;20380;-23
2022/06/02 04:52:02;;;;;;;4.22;2.20;;;;;;;17.38;55.35;96757.41;10482596;28;20065;-23
2022/06/02 04:57:33;;;;;;;2.45;1.60;;;;;;;17.41;55.11;96762.50;10465570;28;20446;-22
2022/06/02 05:02:56;;;;;;;4.75;1.60;;;;;;;17.36;54.97;96739.69;10480436;28;20036;-22
2022/06/02 05:08:27;;;;;;;3.38;1.60;;;;;;;17.42;55.39;96759.13;10490839;28;20112;-23
2022/06/02 05:13:57;;;;;;;2.15;1.10;;;;;;;17.42;55.31;96756.59;10450414;28;20079;-23
2022/06/02 05:19:22;;;;;;;2.25;1.40;;;;;;;17.57;54.70;96766.78;10474865;28;20070;-23
2022/06/02 05:25:03;;;;;;;4.13;1.52;;;;;;;17.59;54.66;96758.34;10448807;28;20021;-22
2022/06/02 05:30:17;;;;;;;4.53;1.67;;;;;;;17.55;54.80;96770.97;10448745;28;20095;-22
2022/06/02 05:36:01;;;;;;;3.97;1.52;;;;;;;17.51;55.01;96769.28;10446401;28;20041;-25
2022/06/02 05:41:28;;;;;;;2.30;1.50;;;;;;;17.42;55.17;96759.13;10452787;28;20102;-23
2022/06/02 05:46:46;;;;;;;3.17;1.57;;;;;;;17.41;55.10;96758.25;10477130;28;20270;-23
2022/06/02 05:52:10;;;;;;;3.00;1.20;;;;;;;17.35;55.53;96754.84;10476468;28;20072;-22
2022/06/02 05:57:33;;;;;;;3.55;2.08;;;;;;;17.38;55.66;96752.34;10472479;28;20033;-22
2022/06/02 06:02:47;;;;;;;2.30;1.52;;;;;;;17.39;56.01;96764.16;10455833;28;20064;-22
2022/06/02 06:08:05;;;;;;;2.72;1.98;;;;;;;17.40;56.22;96761.63;10455884;28;20037;-23
2022/06/02 06:13:46;;;;;;;4.03;2.00;;;;;;;17.64;55.06;96763.41;10483346;28;20413;-23
2022/06/02 06:19:13;;;;;;;2.50;1.50;;;;;;;17.69;54.62;96764.28;10488774;28;20044;-23
2022/06/02 06:24:29;;;;;;;2.60;1.73;;;;;;;17.69;54.77;96761.75;10454540;28;20029;-23
2022/06/02 06:29:52;;;;;;;2.60;1.67;;;;;;;17.66;55.02;96771.91;10454436;28;20036;-24
2022/06/02 06:35:02;;;;;;;4.05;1.83;;;;;;;17.64;55.35;96774.41;10468102;28;20040;-23
2022/06/02 06:40:17;;;;;;;2.70;1.67;;;;;;;17.61;55.17;96786.22;10490888;28;20622;-25
2022/06/02 06:45:35;;;;;;;3.85;1.90;;;;;;;17.62;55.13;96782.81;10452303;28;20454;-25
2022/06/02 06:50:50;;;;;;;3.55;1.70;;;;;;;17.69;55.27;96784.56;10442986;28;20460;-23
2022/06/02 06:56:02;;;;;;;2.80;1.50;;;;;;;17.66;55.42;96784.56;10482970;28;20036;-22
2022/06/02 07:01:20;;;;;;;3.13;1.67;;;;;;;17.76;54.97;96760.94;10453546;28;20065;-23
2022/06/02 07:06:37;;;;;;;4.75;2.00;;;;;;;17.79;54.80;96755.88;10451739;28;20450;-22
2022/06/02 07:17:27;;;;;;;2.95;1.92;;;;;;;17.85;54.78;96771.09;10452900;28;20430;-23
2022/06/02 07:23:05;;;;;;;5.07;1.70;;;;;;;17.83;54.81;96772.78;10451627;28;20037;-23
2022/06/02 07:28:32;;;;;;;2.67;1.38;;;;;;;17.88;54.71;96782.09;10451516;28;20049;-25
2022/06/02 07:33:53;;;;;;;1.67;1.50;;;;;;;17.85;54.84;96781.25;10451726;28;20079;-23
2022/06/02 07:39:18;;;;;;;1.50;1.33;;;;;;;17.77;54.26;96780.38;10452221;28;20039;-23
2022/06/02 07:44:36;;;;;;;3.28;1.40;;;;;;;17.87;54.66;96799.81;10451722;28;20032;-24
2022/06/02 07:49:55;;;;;;;1.65;1.15;;;;;;;17.72;54.18;96804.81;10457560;28;20028;-24
2022/06/02 07:55:05;;;;;;;2.60;1.55;;;;;;;17.76;54.79;96809.88;10453440;28;20123;-22
2022/06/02 08:00:13;;;;;;;2.65;1.33;;;;;;;17.88;54.63;96811.63;10492507;28;20490;-24
2022/06/02 08:05:41;;;;;;;1.60;1.17;;;;;;;17.80;54.64;96800.63;10483691;28;20021;-24
2022/06/02 08:10:52;;;;;;;3.58;1.40;;;;;;;17.94;54.24;96796.47;10449654;28;20037;-23
2022/06/02 08:16:00;;;;;;;1.50;1.40;;;;;;;17.83;53.95;96790.53;10450432;28;20039;-24
2022/06/02 08:21:16;;;;;;;2.15;1.35;;;;;;;17.87;54.37;96808.28;10455535;28;20028;-23
2022/06/02 08:26:39;;;;;;;1.45;1.02;;;;;;;18.06;54.56;96811.69;10461643;28;20036;-22
2022/06/02 08:31:55;;;;;;;1.83;1.50;;;;;;;17.98;54.52;96805.78;10458440;28;20033;-22
2022/06/02 08:37:20;;;;;;;3.33;1.17;;;;;;;17.95;53.99;96803.22;10476300;28;20044;-22
2022/06/02 08:42:58;;;;;;;4.53;1.10;;;;;;;17.88;54.14;96796.44;10450076;28;20102;-23
2022/06/02 08:48:32;;;;;;;1.23;1.13;;;;;;;17.87;54.38;96785.47;10449738;28;20415;-25
2022/06/02 08:54:09;;;;;;;1.58;1.20;;;;;;;18.02;54.05;96775.41;10460148;28;20064;-22
2022/06/02 08:59:31;;;;;;;5.03;1.80;;;;;;;18.05;54.71;96760.19;10449411;28;20496;-22
2022/06/02 09:05:25;;;;;;;1.73;1.17;;;;;;;18.05;53.78;96774.53;10468472;28;20033;-24
2022/06/02 09:10:35;;;;;;;2.05;1.10;;;;;;;17.98;54.01;96785.50;10458209;28;20495;-23
2022/06/02 09:15:54;;;;;;;3.05;1.35;;;;;;;17.75;54.32;96775.28;10448817;28;20384;-23
2022/06/02 09:21:21;;;;;;;2.65;1.25;;;;;;;17.82;54.78;96798.97;10478729;28;20044;-23
2022/06/02 09:26:51;;;;;;;2.05;1.02;;;;;;;17.85;54.50;96792.22;10474843;28;20060;-22
2022/06/02 09:32:06;;;;;;;7.70;1.42;;;;;;;17.91;54.45;96807.41;10486202;28;20033;-23
2022/06/02 09:37:25;;;;;;;2.03;1.10;;;;;;;17.90;54.45;96815.03;10456718;28;20029;-22
2022/06/02 09:42:39;;;;;;;3.08;1.17;;;;;;;17.94;54.16;96811.66;10462129;28;20511;-26
2022/06/02 09:48:07;;;;;;;1.67;1.25;;;;;;;17.94;54.18;96807.47;10456174;28;20044;-22
2022/06/02 09:53:19;;;;;;;3.40;1.20;;;;;;;17.89;54.29;96811.66;10483424;28;20029;-23
2022/06/02 09:58:57;;;;;;;2.53;1.30;;;;;;;17.97;53.99;96801.53;10465187;28;20485;-23
2022/06/02 10:04:23;;;;;;;0.70;0.70;;;;;;;17.99;54.00;96804.94;10456264;28;20056;-22
2022/06/02 10:10:12;;;;;;;2.38;1.20;;;;;;;18.01;54.04;96805.78;10456236;28;20041;-24
2022/06/02 10:15:33;;;;;;;1.70;1.30;;;;;;;18.00;53.98;96801.56;10452422;28;20052;-22
2022/06/02 10:21:12;;;;;;;3.10;1.05;;;;;;;18.04;53.95;96798.19;10454252;28;20025;-24
2022/06/02 10:26:27;;;;;;;0.88;0.85;;;;;;;17.97;54.49;96801.53;10459035;28;20052;-22
2022/06/02 10:32:04;;;;;;;1.80;1.15;;;;;;;17.97;54.21;96797.31;10469737;28;20041;-22
2022/06/02 10:37:27;;;;;;;2.67;1.05;;;;;;;18.01;53.91;96795.66;10496410;28;20054;-23
2022/06/02 10:43:04;;;;;;;3.55;1.05;;;;;;;18.06;53.66;96791.41;10455764;28;20495;-22
2022/06/02 10:48:05;;;;;;;1.65;0.95;;;;;;;17.96;53.98;96774.50;10462258;28;20427;-22
2022/06/02 10:53:40;;;;;;;7.80;1.80;;;;;;;18.16;55.11;96773.72;10495077;28;20036;-23
2022/06/02 10:58:58;;;;;;;14.15;2.58;;;;;;;18.31;55.87;96778.00;10459968;28;20094;-23
2022/06/02 11:04:04;;;;;;;3.45;1.20;;;;;;;18.12;53.85;96781.31;10452915;28;20035;-22
2022/06/02 11:09:38;;;;;;;1.90;1.20;;;;;;;18.04;54.12;96768.63;10453442;28;20040;-22
2022/06/02 11:14:56;;;;;;;2.85;1.13;;;;;;;17.93;54.70;96782.09;10487578;28;20051;-23
2022/06/02 11:20:15;;;;;;;2.33;1.10;;;;;;;17.94;54.90;96783.78;10481899;28;20060;-22
2022/06/02 11:25:53;;;;;;;1.60;1.00;;;;;;;17.92;54.74;96791.38;10451868;28;20408;-22
2022/06/02 11:31:16;;;;;;;2.25;1.08;;;;;;;17.90;54.63;96788.00;10452778;28;20032;-22
2022/06/02 11:36:54;;;;;;;1.70;1.05;;;;;;;17.94;54.73;96786.34;10451967;28;20511;-23
2022/06/02 11:42:35;;;;;;;2.17;1.40;;;;;;;17.95;54.50;96788.88;10452041;28;20024;-22
2022/06/02 11:48:10;;;;;;;3.90;1.45;;;;;;;18.02;54.14;96779.59;10451266;28;20125;-23
2022/06/02 11:53:31;;;;;;;7.75;1.80;;;;;;;18.22;55.73;96777.94;10476943;28;20041;-23
2022/06/02 11:58:54;;;;;;;2.30;1.42;;;;;;;18.28;54.38;96781.38;10459425;28;20045;-22
2022/06/02 12:04:15;;;;;;;2.75;1.30;;;;;;;18.23;53.77;96779.63;10492274;28;20077;-23
2022/06/02 12:09:34;;;;;;;9.27;2.03;;;;;;;18.13;54.19;96762.72;10467722;28;20036;-22
2022/06/02 12:15:05;;;;;;;5.20;1.58;;;;;;;18.18;53.99;96771.19;10450857;28;20415;-23
2022/06/02 12:20:32;;;;;;;4.78;1.65;;;;;;;18.18;53.92;96791.47;10450726;28;20033;-23
2022/06/02 12:25:58;;;;;;;46.28;6.20;;;;;;;18.15;54.36;96830.31;10449734;28;20064;-23
2022/06/02 12:31:20;;;;;;;18.58;3.10;;;;;;;18.11;54.25;96835.38;10450012;28;20051;-22
2022/06/02 12:36:34;;;;;;;9.07;1.95;;;;;;;18.14;54.23;96870.84;10449480;28;20036;-22
2022/06/02 12:41:44;;;;;;;4.82;1.60;;;;;;;18.05;53.78;96873.34;10449755;28;20041;-24
2022/06/02 12:46:53;;;;;;;10.18;1.92;;;;;;;18.12;53.95;96858.19;10449315;28;20041;-23
2022/06/02 12:51:53;;;;;;;11.95;2.35;;;;;;;18.18;53.97;96859.88;10466550;28;20041;-25
2022/06/02 12:57:27;;;;;;;7.30;1.42;;;;;;;18.14;53.83;96853.09;10470812;28;20060;-23
2022/06/02 13:03:01;;;;;;;5.20;1.50;;;;;;;18.15;53.66;96842.97;10448429;28;20060;-22
2022/06/02 13:08:48;;;;;;;4.88;1.50;;;;;;;18.16;54.09;96838.78;10486827;28;20282;-23
2022/06/02 13:14:31;;;;;;;2.55;1.60;;;;;;;18.12;55.83;96855.66;10478402;28;20032;-23
2022/06/02 13:19:37;;;;;;;2.97;1.77;;;;;;;18.13;55.48;96839.59;10488699;28;20049;-24
2022/06/02 13:25:12;;;;;;;2.53;1.52;;;;;;;18.18;55.88;96837.06;10482116;28;20515;-22
2022/06/02 13:30:19;;;;;;;5.65;2.22;;;;;;;18.16;55.66;96838.78;10456294;28;20060;-23
2022/06/02 13:35:39;;;;;;;5.13;1.80;;;;;;;18.13;56.51;96828.59;10490093;28;20040;-24
2022/06/02 13:41:00;;;;;;;3.72;1.98;;;;;;;18.20;55.61;96804.97;10477886;28;20757;-23
2022/06/02 13:46:31;;;;;;;3.42;1.73;;;;;;;18.20;56.21;96807.50;10497280;28;20475;-23
2022/06/02 13:52:08;;;;;;;3.13;1.38;;;;;;;18.17;55.52;96805.81;10491452;28;20411;-22
2022/06/02 13:57:32;;;;;;;6.97;3.10;;;;;;;18.17;56.64;96797.38;10474950;28;20555;-23
2022/06/02 14:03:18;;;;;;;5.93;3.35;;;;;;;18.15;56.89;96783.88;10455386;28;20132;-23
2022/06/02 14:08:35;;;;;;;5.13;2.58;;;;;;;18.16;56.18;96788.09;10456726;28;20037;-24
2022/06/02 14:14:01;;;;;;;4.00;2.05;;;;;;;18.10;56.73;96776.25;10455424;28;20033;-23
2022/06/02 14:19:09;;;;;;;29.53;3.63;;;;;;;18.13;57.49;96767.78;10453283;28;20045;-23
2022/06/02 14:24:23;;;;;;;12.23;2.60;;;;;;;18.11;57.96;96756.81;10454711;28;20037;-24
2022/06/02 14:29:40;;;;;;;11.93;3.33;;;;;;;18.24;58.31;96750.94;10453891;28;20071;-25
2022/06/02 14:35:18;;;;;;;9.30;3.33;;;;;;;18.35;56.96;96745.03;10482565;28;20048;-23
2022/06/02 14:40:32;;;;;;;10.90;2.17;;;;;;;18.35;57.14;96739.97;10476556;28;20489;-22
2022/06/02 14:46:11;;;;;;;4.80;2.22;;;;;;;18.44;56.79;96729.88;10453246;28;20041;-23
2022/06/02 14:51:25;;;;;;;7.72;2.65;;;;;;;18.49;57.52;96723.09;10474739;28;20079;-22
2022/06/02 14:56:31;;;;;;;7.65;3.00;;;;;;;18.61;57.53;96724.78;10474302;28;20040;-22
2022/06/02 15:01:38;;;;;;;7.45;3.10;;;;;;;18.69;57.66;96720.56;10478577;28;20033;-21
2022/06/02 15:06:58;;;;;;;17.23;5.35;;;;;;;18.83;59.55;96718.88;10478853;28;21431;-22
2022/06/02 15:12:35;;;;;;;12.45;4.20;;;;;;;18.88;59.33;96717.13;10474072;28;20131;-23
2022/06/02 15:17:39;;;;;;;9.90;3.80;;;;;;;18.85;57.29;96714.63;10480279;28;20549;-23
2022/06/02 15:23:04;;;;;;;13.02;5.03;;;;;;;18.94;60.42;96722.22;10472935;28;20033;-24
2022/06/02 15:28:23;;;;;;;9.95;4.43;;;;;;;19.00;57.06;96719.69;10464433;28;20063;-22
2022/06/02 15:33:58;;;;;;;8.10;4.35;;;;;;;19.01;57.04;96714.56;10480638;28;20083;-22
2022/06/02 15:39:19;;;;;;;12.80;4.88;;;;;;;19.08;59.29;96712.88;10489187;28;20097;-22
2022/06/02 15:44:47;;;;;;;8.70;4.65;;;;;;;19.05;57.94;96695.13;10477629;28;20028;-22
2022/06/02 15:49:54;;;;;;;6.35;3.33;;;;;;;18.90;56.37;96700.22;10481507;28;20039;-26
2022/06/02 15:55:19;;;;;;;12.43;6.65;;;;;;;18.95;59.43;96683.31;10508720;27;20414;-21
2022/06/02 16:00:45;;;;;;;9.15;4.03;;;;;;;18.93;58.78;96677.41;10473187;28;20605;-21
2022/06/02 16:05:54;;;;;;;8.55;3.88;;;;;;;18.85;56.19;96671.50;10470476;28;20118;-23
2022/06/02 16:11:36;;;;;;;7.82;3.67;;;;;;;18.64;56.64;96653.78;10471585;28;20399;-21
2022/06/02 16:17:12;;;;;;;13.77;5.68;;;;;;;18.91;66.23;96663.88;10476493;28;20503;-22
2022/06/02 16:22:33;;;;;;;7.33;4.03;;;;;;;18.72;57.86;96649.53;10464028;28;20112;-23
2022/06/02 16:28:02;;;;;;;8.18;3.47;;;;;;;18.82;57.34;96656.31;10466812;28;20044;-22
2022/06/02 16:33:19;;;;;;;13.07;5.07;;;;;;;18.97;67.14;96643.53;10467821;28;20060;-22
2022/06/02 16:38:52;;;;;;;23.55;5.13;;;;;;;18.96;63.90;96654.56;10474742;28;20418;-23
2022/06/02 16:44:08;;;;;;;10.73;4.72;;;;;;;18.97;67.25;96656.22;10454345;28;20048;-26
2022/06/02 16:49:29;;;;;;;;;;;;;;;18.96;66.45;96654.56;10472321;28;20040;-22
2022/06/02 16:55:10;;;;;;;5.88;3.38;;;;;;;18.91;64.88;96656.28;10476097;28;19919;-22
2022/06/02 17:00:36;;;;;;;6.18;3.38;;;;;;;18.81;58.43;96649.50;10465100;28;20044;-20
2022/06/02 17:06:14;;;;;;;6.27;2.83;;;;;;;18.79;58.22;96656.28;10442029;28;20040;-23
2022/06/02 17:11:23;;;;;;;7.70;3.70;;;;;;;18.76;62.74;96658.84;10452381;28;20040;-22
2022/06/02 17:16:58;;;;;;;12.65;3.75;;;;;;;18.77;63.54;96658.81;10446447;28;20037;-23
2022/06/02 17:22:36;;;;;;;10.38;3.80;;;;;;;18.94;65.49;96653.72;10430984;28;20033;-21
2022/06/02 17:27:55;;;;;;;10.70;3.45;;;;;;;18.78;58.06;96659.69;10428679;28;20124;-23
2022/06/02 17:33:15;;;;;;;10.63;3.88;;;;;;;18.83;61.82;96660.53;10435365;28;20028;-22
2022/06/02 17:38:41;;;;;;;5.85;3.17;;;;;;;18.73;59.24;96656.28;10444252;28;20052;-23
2022/06/02 17:44:13;;;;;;;6.47;3.25;;;;;;;18.79;65.73;96661.34;10441399;28;20040;-23
2022/06/02 17:49:39;;;;;;;10.98;3.83;;;;;;;18.93;67.75;96668.09;10447564;28;20063;-22
2022/06/02 17:54:58;;;;;;;5.35;3.35;;;;;;;19.05;67.30;96664.66;10437450;28;20415;-23
2022/06/02 18:00:16;;;;;;;6.80;3.70;;;;;;;19.03;67.95;96661.31;10448865;28;20040;-22
2022/06/02 18:05:22;;;;;;;15.95;3.30;;;;;;;18.78;58.29;96667.28;10444507;28;20087;-22
2022/06/02 18:10:47;;;;;;;7.13;2.50;;;;;;;18.62;57.82;96663.94;10449191;28;20039;-23
2022/06/02 18:15:56;;;;;;;6.65;3.05;;;;;;;18.76;60.19;96677.41;10425508;28;20041;-22
2022/06/02 18:21:12;;;;;;;7.75;3.42;;;;;;;18.71;59.29;96673.22;10435171;28;20025;-22
2022/06/02 18:26:21;;;;;;;11.90;2.97;;;;;;;18.76;59.48;96668.97;10428650;28;20026;-22
2022/06/02 18:31:44;;;;;;;8.15;2.10;;;;;;;18.67;58.90;96662.22;10445728;28;20050;-22
2022/06/02 18:37:22;;;;;;;3.70;2.53;;;;;;;18.53;57.18;96663.09;10445385;28;20071;-23
2022/06/02 18:42:59;;;;;;;2.95;2.20;;;;;;;18.45;56.79;96664.78;10427927;28;20037;-22
2022/06/02 18:48:34;;;;;;;5.40;2.13;;;;;;;18.42;57.57;96664.81;10409946;28;20025;-22
2022/06/02 18:54:25;;;;;;;9.23;3.03;;;;;;;18.58;59.49;96672.38;10471073;28;20058;-23
2022/06/02 18:59:44;;;;;;;7.63;2.63;;;;;;;18.78;61.49;96677.44;10356756;28;20057;-22
2022/06/02 19:05:08;;;;;;;3.35;2.22;;;;;;;18.46;57.02;96691.81;10428994;28;20032;-23
2022/06/02 19:16:05;;;;;;;;;;;;;;;18.45;58.25;96685.06;10420751;28;20218;-23
2022/06/02 19:21:19;;;;;;;7.30;2.38;;;;;;;18.36;57.64;96682.53;10415624;28;19999;-24
2022/06/02 19:26:41;;;;;;;7.32;2.50;;;;;;;18.36;57.52;96687.63;10421750;28;20051;-24
2022/06/02 19:31:52;;;;;;;6.05;2.40;;;;;;;18.39;57.16;96682.53;10450034;28;20036;-23
2022/06/02 19:37:16;;;;;;;3.25;2.25;;;;;;;18.37;57.26;96681.69;10415373;28;20403;-23
2022/06/02 19:42:39;;;;;;;6.10;2.53;;;;;;;18.34;58.82;96692.66;10408643;28;20052;-22
2022/06/02 19:47:51;;;;;;;10.50;2.67;;;;;;;18.35;59.31;96685.94;10408306;28;20502;-23
2022/06/02 19:53:17;;;;;;;3.47;2.28;;;;;;;18.33;60.15;96700.28;10413286;28;20036;-23
2022/06/02 19:58:26;;;;;;;2.80;2.33;;;;;;;18.18;60.84;96685.03;10407854;28;20136;-22
2022/06/02 20:03:36;;;;;;;3.20;2.45;;;;;;;18.27;61.55;96707.84;10407691;28;20025;-22
2022/06/02 20:08:49;;;;;;;5.10;2.47;;;;;;;18.28;61.05;96707.00;10407540;28;20030;-23
2022/06/02 20:13:58;;;;;;;3.45;2.05;;;;;;;18.39;58.48;96700.28;10407500;28;20034;-23
2022/06/02 20:19:20;;;;;;;2.45;2.20;;;;;;;18.33;59.72;96701.13;10407554;28;20079;-23
2022/06/02 20:24:28;;;;;;;4.50;2.10;;;;;;;18.31;61.34;96701.97;10406588;28;20042;-23
2022/06/02 20:29:50;;;;;;;3.85;2.45;;;;;;;18.28;61.72;96704.47;10408357;28;20036;-23
2022/06/02 20:34:58;;;;;;;3.38;2.58;;;;;;;18.26;62.13;96706.16;10420368;28;20037;-23
2022/06/02 20:40:12;;;;;;;4.68;2.35;;;;;;;18.26;60.42;96696.03;10411835;28;20068;-23
2022/06/02 20:45:16;;;;;;;3.85;2.30;;;;;;;18.27;60.24;96692.66;10414860;28;20060;-25
2022/06/02 20:50:26;;;;;;;4.18;1.83;;;;;;;18.28;60.93;96701.94;10421233;28;20032;-22
2022/06/02 20:55:41;;;;;;;2.83;2.10;;;;;;;18.37;60.19;96701.97;10481690;28;20075;-24
2022/06/02 21:00:47;;;;;;;2.28;1.83;;;;;;;18.34;60.12;96709.59;10414736;28;20021;-22
2022/06/02 21:06:10;;;;;;;3.35;2.33;;;;;;;18.34;60.67;96702.81;10414645;28;20069;-23
2022/06/02 21:11:19;;;;;;;3.65;2.08;;;;;;;18.35;60.83;96713.81;10445940;28;20052;-23
2022/06/02 21:16:36;;;;;;;2.28;2.08;;;;;;;18.35;60.75;96703.66;10453241;28;20040;-25
2022/06/02 21:21:58;;;;;;;3.90;2.30;;;;;;;18.34;60.56;96692.66;10465983;28;20552;-24
2022/06/02 21:27:20;;;;;;;4.18;2.20;;;;;;;18.38;60.64;96704.50;10462462;28;20385;-23
2022/06/02 21:32:27;;;;;;;2.35;2.15;;;;;;;18.39;60.17;96691.00;10453756;28;20556;-24
2022/06/02 21:37:34;;;;;;;1.77;1.67;;;;;;;18.45;60.00;96701.16;10452201;28;20037;-24
2022/06/02 21:42:40;;;;;;;2.20;1.85;;;;;;;18.40;60.74;96707.88;10448166;28;20095;-22
2022/06/02 21:48:19;;;;;;;2.95;1.85;;;;;;;18.39;60.88;96707.88;10448954;28;20087;-22
2022/06/02 21:53:35;;;;;;;3.47;2.20;;;;;;;18.37;61.06;96707.91;10481015;28;20040;-23
2022/06/02 21:58:44;;;;;;;3.00;2.33;;;;;;;18.34;61.04;96707.06;10460699;28;20411;-23
2022/06/02 22:03:57;;;;;;;3.35;2.70;;;;;;;18.35;60.85;96708.75;10443986;28;20029;-23
2022/06/02 22:09:05;;;;;;;3.78;2.72;;;;;;;18.34;61.25;96712.94;10411896;28;20112;-24
2022/06/02 22:14:28;;;;;;;2.63;2.22;;;;;;;18.30;61.27;96712.94;10447633;28;20116;-24
2022/06/02 22:19:46;;;;;;;6.80;2.00;;;;;;;18.34;61.44;96705.34;10434431;28;20048;-23
2022/06/02 22:25:00;;;;;;;2.45;2.25;;;;;;;18.33;61.33;96692.69;10411572;28;20025;-23
2022/06/02 22:30:21;;;;;;;2.92;2.22;;;;;;;18.34;60.97;96704.50;10452165;28;20037;-24
2022/06/02 22:35:47;;;;;;;2.50;2.30;;;;;;;18.33;61.13;96700.28;10444964;28;20076;-23
2022/06/02 22:41:25;;;;;;;2.65;2.08;;;;;;;18.29;61.21;96686.78;10410313;28;20489;-23
2022/06/02 22:46:50;;;;;;;4.30;3.00;;;;;;;18.29;61.26;96678.28;10409174;28;20507;-24
2022/06/02 22:52:09;;;;;;;3.35;2.33;;;;;;;18.27;61.16;96680.84;10454549;28;20035;-23
2022/06/02 22:57:31;;;;;;;4.57;2.58;;;;;;;18.25;60.71;96662.22;10449410;28;20416;-24
2022/06/02 23:02:49;;;;;;;2.85;2.40;;;;;;;18.27;61.27;96660.56;10409594;28;20041;-22
2022/06/02 23:08:02;;;;;;;2.45;2.25;;;;;;;18.32;61.26;96650.47;10409814;28;20041;-23
2022/06/02 23:13:14;;;;;;;3.13;2.63;;;;;;;18.29;60.51;96652.94;10410027;28;20038;-23
2022/06/02 23:18:40;;;;;;;3.47;2.60;;;;;;;18.22;61.07;96661.38;10409601;28;20045;-24
2022/06/02 23:24:19;;;;;;;2.90;2.47;;;;;;;18.22;61.20;96671.50;10409294;28;20490;-23
2022/06/02 23:29:28;;;;;;;4.07;2.60;;;;;;;18.18;61.53;96668.13;10409686;28;20048;-23
2022/06/02 23:34:53;;;;;;;2.92;2.63;;;;;;;18.17;61.28;96668.16;10434696;28;20032;-23
2022/06/02 23:39:53;;;;;;;2.80;2.58;;;;;;;18.19;61.14;96651.25;10409186;28;20788;-24
2022/06/02 23:45:12;;;;;;;3.50;2.63;;;;;;;18.26;61.54;96650.41;10408723;28;20065;-23
2022/06/02 23:50:12;;;;;;;3.28;2.50;;;;;;;18.25;61.27;96641.13;10425090;28;20534;-24
2022/06/02 23:55:48;;;;;;;2.78;2.35;;;;;;;18.17;61.36;96613.25;10484202;28;20025;-22
